Pittsburgh, Pennsylvania
Traffic Map
Current Weather Conditions
Pittsburgh, Pennsylvania
Overcast
Overcast
28°
Feels Like: 28°
Wind Chill: 28° Ceiling: 5000
Heat Index: 28° Visibility: 10mi
Dew Point: 18° Wind: 3mph
Humidity: 66% Direction: 290° (WNW)
Pressure: 30.3in Gusts: 0mph
Raw Report DataKAGC 211253Z 29003KT 10SM OVC050 M02/M08 A3030 RMK AO2 SLP281 T10221078
Traffic Incident Summary
Active as of:
Severity:
Category:
InformationThere was an issue retrieving the traffic information for this location. Please try a different location or try again shortly.
Advertisements
Track Severe Weather on mobile